createdAt,value
2023-03-29T00:00:14.473Z,12.80
2023-03-29T00:03:04.091Z,13.10
2023-03-29T00:05:35.444Z,13.40
2023-03-29T00:08:04.363Z,13.40
2023-03-29T00:10:32.662Z,14.90
2023-03-29T00:13:00.972Z,17.50
2023-03-29T00:15:28.586Z,20.10
2023-03-29T00:17:56.199Z,40.50
2023-03-29T00:20:23.867Z,36.80
2023-03-29T00:22:51.833Z,25.90
2023-03-29T00:25:19.411Z,21.40
2023-03-29T00:27:47.091Z,19.50
2023-03-29T00:30:15.350Z,20.80
2023-03-29T00:32:43.188Z,21.70
2023-03-29T00:35:11.067Z,23.00
2023-03-29T00:37:38.754Z,21.60
2023-03-29T00:40:09.623Z,20.70
2023-03-29T00:42:37.447Z,21.90
2023-03-29T00:45:19.110Z,21.50
2023-03-29T00:47:49.652Z,22.50
2023-03-29T00:50:25.770Z,21.70
2023-03-29T00:53:02.594Z,18.20
2023-03-29T00:55:35.548Z,19.90
2023-03-29T00:58:05.081Z,20.90
2023-03-29T01:00:35.694Z,18.20
2023-03-29T01:03:09.039Z,38.80
2023-03-29T01:08:08.120Z,21.60
2023-03-29T01:10:43.356Z,22.00
2023-03-29T01:13:13.526Z,19.90
2023-03-29T01:15:42.208Z,19.20
2023-03-29T01:18:09.840Z,19.80
2023-03-29T01:20:50.922Z,18.00
2023-03-29T01:23:18.493Z,18.80
2023-03-29T01:26:17.202Z,17.50
2023-03-29T01:29:07.570Z,17.20
2023-03-29T01:31:38.612Z,18.10
2023-03-29T01:34:11.621Z,16.50
2023-03-29T01:36:51.212Z,16.60
2023-03-29T01:39:19.356Z,13.10
2023-03-29T01:41:48.866Z,17.50
2023-03-29T01:44:43.528Z,38.80
2023-03-29T01:47:12.522Z,25.00
2023-03-29T01:49:48.408Z,20.70
2023-03-29T01:52:19.010Z,19.60
2023-03-29T01:55:00.493Z,15.00
2023-03-29T01:57:28.181Z,15.20
2023-03-29T01:59:55.816Z,14.60
2023-03-29T02:02:24.112Z,15.80
2023-03-29T02:04:53.660Z,16.50
2023-03-29T02:07:24.745Z,15.20
2023-03-29T02:09:52.792Z,17.30
2023-03-29T02:12:20.874Z,16.00
2023-03-29T02:14:48.429Z,17.40
2023-03-29T02:17:20.522Z,15.30
2023-03-29T02:19:50.223Z,17.50
2023-03-29T02:22:33.600Z,38.80
2023-03-29T02:25:01.807Z,23.90
2023-03-29T02:27:29.684Z,18.80
2023-03-29T02:29:57.245Z,18.50
2023-03-29T02:32:26.581Z,17.90
2023-03-29T02:34:58.700Z,15.70
2023-03-29T02:37:26.776Z,16.20
2023-03-29T02:39:54.411Z,16.00
2023-03-29T02:42:22.016Z,16.40
2023-03-29T02:44:50.146Z,16.80
2023-03-29T02:47:32.079Z,16.60
2023-03-29T02:49:59.861Z,15.70
2023-03-29T02:52:33.463Z,16.40
2023-03-29T02:55:03.126Z,15.10
2023-03-29T02:57:32.476Z,16.70
2023-03-29T03:00:00.171Z,18.20
2023-03-29T03:02:27.915Z,43.80
2023-03-29T03:04:55.861Z,28.90
2023-03-29T03:07:24.951Z,23.70
2023-03-29T03:09:52.820Z,23.80
2023-03-29T03:12:20.414Z,22.00
2023-03-29T03:14:48.313Z,22.30
2023-03-29T03:17:15.914Z,26.70
2023-03-29T03:19:43.504Z,27.20
2023-03-29T03:22:11.953Z,29.20
2023-03-29T03:24:39.563Z,30.00
2023-03-29T03:27:08.611Z,29.50
2023-03-29T03:29:38.524Z,27.70
2023-03-29T03:32:06.298Z,27.40
2023-03-29T03:34:34.845Z,27.30
2023-03-29T03:37:02.434Z,26.40
2023-03-29T03:39:30.357Z,30.30
2023-03-29T03:41:58.015Z,57.20
2023-03-29T03:44:25.630Z,36.30
2023-03-29T03:46:53.277Z,33.40
2023-03-29T03:49:21.958Z,33.50
2023-03-29T03:51:51.033Z,35.10
2023-03-29T03:54:20.266Z,31.50
2023-03-29T03:56:48.245Z,29.00
2023-03-29T03:59:15.933Z,27.70
2023-03-29T04:01:43.700Z,29.30
2023-03-29T04:04:12.087Z,29.10
2023-03-29T04:06:41.702Z,26.80
2023-03-29T04:09:11.114Z,28.40
2023-03-29T04:11:38.795Z,23.80
2023-03-29T04:14:06.385Z,25.90
2023-03-29T04:16:33.963Z,26.70
2023-03-29T04:19:01.716Z,49.00
2023-03-29T04:21:29.464Z,44.40
2023-03-29T04:23:57.127Z,30.00
2023-03-29T04:26:24.960Z,27.20
2023-03-29T04:28:52.657Z,27.60
2023-03-29T04:31:20.482Z,20.70
2023-03-29T04:33:48.178Z,19.80
2023-03-29T04:36:16.073Z,28.00
2023-03-29T04:38:47.395Z,27.10
2023-03-29T04:41:15.599Z,26.90
2023-03-29T04:43:46.865Z,26.90
2023-03-29T04:46:14.972Z,32.30
2023-03-29T04:48:42.666Z,33.40
2023-03-29T04:51:10.333Z,29.60
2023-03-29T04:53:38.085Z,29.80
2023-03-29T04:56:06.208Z,28.90
2023-03-29T04:58:33.830Z,30.00
2023-03-29T05:01:01.951Z,72.50
2023-03-29T05:03:29.823Z,61.20
2023-03-29T05:06:06.932Z,42.70
2023-03-29T05:08:39.141Z,39.00
2023-03-29T05:11:07.844Z,31.70
2023-03-29T05:13:35.464Z,28.60
2023-03-29T05:16:04.360Z,29.10
2023-03-29T05:18:32.142Z,28.80
2023-03-29T05:21:00.201Z,27.10
2023-03-29T05:23:28.886Z,26.60
2023-03-29T05:25:56.845Z,27.60
2023-03-29T05:28:24.513Z,25.60
2023-03-29T05:31:04.465Z,26.20
2023-03-29T05:33:32.593Z,23.80
2023-03-29T05:36:05.203Z,25.40
2023-03-29T05:38:33.037Z,25.10
2023-03-29T05:41:01.175Z,26.00
2023-03-29T05:43:29.017Z,24.70
2023-03-29T05:45:56.681Z,24.70
2023-03-29T05:48:24.595Z,28.40
2023-03-29T05:50:53.612Z,32.50
2023-03-29T05:53:22.536Z,32.10
2023-03-29T05:55:50.355Z,34.40
2023-03-29T05:58:20.293Z,34.60
2023-03-29T06:00:49.666Z,83.50
2023-03-29T06:03:23.746Z,74.90
2023-03-29T06:05:59.383Z,42.80
2023-03-29T06:08:27.756Z,16.30
2023-03-29T06:11:04.924Z,14.70
2023-03-29T06:13:34.116Z,13.60
2023-03-29T06:16:01.729Z,16.80
2023-03-29T06:18:29.355Z,11.60
2023-03-29T06:20:56.991Z,11.40
2023-03-29T06:23:24.996Z,25.90
2023-03-29T06:25:52.734Z,17.60
2023-03-29T06:28:20.522Z,12.00
2023-03-29T06:30:48.379Z,15.40
2023-03-29T06:33:17.082Z,9.50
2023-03-29T06:35:47.210Z,9.50
2023-03-29T06:38:15.323Z,12.70
2023-03-29T06:40:44.687Z,8.00
2023-03-29T06:43:13.046Z,8.10
2023-03-29T06:45:40.719Z,14.60
2023-03-29T06:48:08.669Z,10.70
2023-03-29T06:50:36.692Z,9.70
2023-03-29T06:53:04.429Z,10.10
2023-03-29T06:55:32.170Z,7.80
2023-03-29T06:58:02.463Z,7.00
2023-03-29T07:00:30.626Z,9.40
2023-03-29T07:02:58.729Z,8.30
2023-03-29T07:05:27.298Z,10.40
2023-03-29T07:08:00.469Z,10.30
2023-03-29T07:13:00.883Z,9.10
2023-03-29T07:15:28.765Z,5.10
2023-03-29T07:17:57.653Z,6.80
2023-03-29T07:20:27.302Z,6.00
2023-03-29T07:22:55.050Z,7.80
2023-03-29T07:25:23.556Z,6.40
2023-03-29T07:27:52.144Z,7.10
2023-03-29T07:30:22.799Z,6.00
2023-03-29T07:32:51.115Z,5.80
2023-03-29T07:35:19.152Z,6.60
2023-03-29T07:37:47.599Z,7.80
2023-03-29T07:40:18.314Z,4.90
2023-03-29T07:42:46.230Z,7.20
2023-03-29T07:45:16.436Z,6.20
2023-03-29T07:47:44.693Z,10.10
2023-03-29T07:50:12.484Z,8.80
2023-03-29T07:52:40.286Z,7.30
2023-03-29T07:55:08.733Z,9.50
2023-03-29T07:57:36.566Z,4.30
2023-03-29T08:00:15.878Z,10.80
2023-03-29T08:05:13.718Z,11.00
2023-03-29T08:07:42.403Z,12.00
2023-03-29T08:10:18.177Z,13.10
2023-03-29T08:12:46.540Z,10.30
2023-03-29T08:15:14.408Z,11.00
2023-03-29T08:17:42.186Z,13.00
2023-03-29T08:20:12.142Z,7.00
2023-03-29T08:22:40.418Z,10.10
2023-03-29T08:25:08.926Z,7.30
2023-03-29T08:27:37.732Z,6.70
2023-03-29T08:30:07.825Z,6.00
2023-03-29T08:32:39.521Z,7.10
2023-03-29T08:35:09.652Z,6.20
2023-03-29T08:37:37.637Z,5.60
2023-03-29T08:40:06.191Z,4.70
2023-03-29T08:43:09.606Z,8.20
2023-03-29T08:46:00.389Z,6.20
2023-03-29T08:48:33.319Z,5.60
2023-03-29T08:51:18.215Z,5.30
2023-03-29T08:53:48.738Z,5.30
2023-03-29T08:56:20.369Z,7.00
2023-03-29T08:58:48.172Z,5.40
2023-03-29T09:01:15.992Z,9.40
2023-03-29T09:04:05.102Z,3.40
2023-03-29T09:06:33.808Z,6.70
2023-03-29T09:09:01.748Z,4.40
2023-03-29T09:11:49.037Z,5.10
2023-03-29T09:14:27.633Z,4.30
2023-03-29T09:17:05.265Z,4.10
2023-03-29T09:19:38.894Z,4.30
2023-03-29T09:22:41.691Z,3.30
2023-03-29T09:25:21.370Z,4.20
2023-03-29T09:28:06.096Z,7.30
2023-03-29T09:30:59.246Z,3.90
2023-03-29T09:33:29.195Z,3.20
2023-03-29T09:36:03.206Z,4.20
2023-03-29T09:38:32.031Z,3.70
2023-03-29T09:41:22.876Z,2.90
2023-03-29T09:43:51.166Z,5.10
2023-03-29T09:46:29.053Z,5.20
2023-03-29T09:48:57.307Z,4.90
2023-03-29T09:51:27.148Z,4.50
2023-03-29T09:53:56.605Z,4.50
2023-03-29T09:56:24.167Z,4.50
2023-03-29T09:58:51.794Z,3.20
2023-03-29T10:01:19.908Z,4.80
2023-03-29T10:03:49.699Z,4.50
2023-03-29T10:06:18.626Z,4.20
2023-03-29T10:08:50.721Z,3.10
2023-03-29T10:11:33.035Z,3.00
2023-03-29T10:14:05.098Z,3.90
2023-03-29T10:16:41.345Z,2.90
2023-03-29T10:19:21.837Z,3.00
2023-03-29T10:21:51.637Z,3.10
2023-03-29T10:24:23.165Z,2.60
2023-03-29T10:26:55.491Z,2.60
2023-03-29T10:29:24.142Z,2.50
2023-03-29T10:31:52.195Z,2.30
2023-03-29T10:34:20.001Z,2.80
2023-03-29T10:36:57.495Z,4.30
2023-03-29T10:39:27.650Z,8.20
2023-03-29T10:41:55.402Z,3.10
2023-03-29T10:44:29.353Z,2.50
2023-03-29T10:47:19.665Z,2.90
2023-03-29T10:49:54.345Z,3.60
2023-03-29T10:52:23.613Z,4.20
2023-03-29T10:54:52.747Z,3.30
2023-03-29T10:57:32.565Z,6.30
2023-03-29T11:00:14.501Z,12.90
2023-03-29T11:03:20.977Z,6.00
2023-03-29T11:06:16.611Z,2.90
2023-03-29T11:09:01.193Z,5.10
2023-03-29T11:11:30.154Z,3.10
2023-03-29T11:14:13.945Z,2.50
2023-03-29T11:16:52.647Z,6.00
2023-03-29T11:22:49.621Z,4.90
2023-03-29T11:25:41.961Z,6.20
2023-03-29T11:28:15.966Z,6.40
2023-03-29T11:30:49.952Z,5.90
2023-03-29T11:33:17.678Z,9.50
2023-03-29T11:35:51.917Z,5.30
2023-03-29T11:38:43.996Z,3.80
2023-03-29T11:41:20.591Z,5.50
2023-03-29T11:44:11.976Z,3.90
2023-03-29T11:46:42.762Z,4.10
2023-03-29T11:49:23.445Z,3.60
2023-03-29T11:52:04.526Z,8.40
2023-03-29T11:55:03.674Z,3.70
2023-03-29T11:57:32.146Z,3.90
2023-03-29T12:00:09.820Z,2.90
2023-03-29T12:02:50.724Z,3.30
2023-03-29T12:05:32.405Z,4.00
2023-03-29T12:08:13.784Z,3.00
2023-03-29T12:10:44.195Z,10.10
2023-03-29T12:13:17.238Z,7.40
2023-03-29T12:15:48.353Z,5.20
2023-03-29T12:18:22.319Z,3.00
2023-03-29T12:20:53.597Z,3.50
2023-03-29T12:23:21.532Z,4.00
2023-03-29T12:26:04.664Z,3.70
2023-03-29T12:29:07.364Z,3.60
2023-03-29T12:31:44.831Z,2.80
2023-03-29T12:34:50.319Z,3.60
2023-03-29T12:37:27.310Z,3.00
2023-03-29T12:40:15.671Z,2.70
2023-03-29T12:42:58.723Z,3.20
2023-03-29T12:45:39.207Z,3.10
2023-03-29T12:48:07.487Z,3.70
2023-03-29T12:50:45.990Z,3.40
2023-03-29T12:53:36.102Z,2.70
2023-03-29T12:56:04.382Z,3.50
2023-03-29T12:58:53.659Z,3.80
2023-03-29T13:01:23.653Z,3.10
2023-03-29T13:04:00.589Z,3.10
2023-03-29T13:06:32.921Z,4.20
2023-03-29T13:09:30.781Z,5.00
2023-03-29T13:12:10.828Z,29.20
2023-03-29T13:14:43.174Z,6.50
2023-03-29T13:17:24.906Z,13.00
2023-03-29T13:20:03.924Z,11.80
2023-03-29T13:22:53.835Z,8.30
2023-03-29T13:25:32.141Z,7.90
2023-03-29T13:28:06.123Z,41.80
2023-03-29T13:30:52.918Z,28.10
2023-03-29T13:33:52.661Z,14.40
2023-03-29T13:36:27.494Z,30.70
2023-03-29T13:38:55.560Z,6.10
2023-03-29T13:41:32.352Z,3.70
2023-03-29T13:44:00.481Z,27.20
2023-03-29T13:46:40.989Z,80.80
2023-03-29T13:49:23.922Z,71.40
2023-03-29T13:51:54.755Z,84.80
2023-03-29T13:54:32.339Z,12.60
2023-03-29T13:57:11.223Z,10.20
2023-03-29T13:59:47.854Z,24.70
2023-03-29T14:02:22.851Z,13.70
2023-03-29T14:04:51.371Z,16.40
2023-03-29T14:07:20.326Z,21.00
2023-03-29T14:09:49.824Z,3.30
2023-03-29T14:12:17.666Z,8.50
2023-03-29T14:14:55.990Z,9.50
2023-03-29T14:17:26.871Z,5.90
2023-03-29T14:19:57.925Z,6.20
2023-03-29T14:22:30.382Z,13.70
2023-03-29T14:25:01.488Z,5.20
2023-03-29T14:27:31.023Z,7.50
2023-03-29T14:29:59.036Z,3.80
2023-03-29T14:32:31.009Z,6.30
2023-03-29T14:35:00.150Z,21.60
2023-03-29T14:37:29.043Z,15.90
2023-03-29T14:39:57.018Z,10.90
2023-03-29T14:42:26.737Z,6.20
2023-03-29T14:45:01.671Z,13.00
2023-03-29T14:47:30.732Z,13.80
2023-03-29T14:50:00.918Z,13.00
2023-03-29T14:52:29.214Z,10.50
2023-03-29T14:55:01.959Z,6.40
2023-03-29T14:57:34.186Z,8.30
2023-03-29T15:00:08.975Z,5.00
2023-03-29T15:02:36.869Z,10.10
2023-03-29T15:05:07.649Z,6.50
2023-03-29T15:07:36.527Z,6.60
2023-03-29T15:10:05.569Z,5.90
2023-03-29T15:12:33.353Z,4.70
2023-03-29T15:15:00.997Z,3.70
2023-03-29T15:17:49.533Z,4.00
2023-03-29T15:20:24.372Z,3.80
2023-03-29T15:22:53.010Z,13.30
2023-03-29T15:25:20.960Z,4.90
2023-03-29T15:27:57.557Z,28.50
2023-03-29T15:30:36.688Z,9.20
2023-03-29T15:33:15.339Z,10.00
2023-03-29T15:38:12.646Z,75.70
2023-03-29T15:40:40.491Z,25.60
2023-03-29T15:43:08.169Z,17.70
2023-03-29T15:45:36.153Z,19.30
2023-03-29T15:48:13.177Z,41.20
2023-03-29T15:50:40.828Z,27.90
2023-03-29T15:53:15.047Z,6.10
2023-03-29T15:55:45.398Z,7.60
2023-03-29T15:58:16.889Z,8.80
2023-03-29T16:00:47.862Z,26.40
2023-03-29T16:03:16.274Z,8.30
2023-03-29T16:05:44.430Z,5.20
2023-03-29T16:08:12.717Z,9.20
2023-03-29T16:10:41.239Z,9.90
2023-03-29T16:13:10.978Z,13.10
2023-03-29T16:15:38.732Z,7.70
2023-03-29T16:18:06.429Z,10.40
2023-03-29T16:20:34.345Z,8.00
2023-03-29T16:23:08.903Z,9.50
2023-03-29T16:25:38.409Z,12.40
2023-03-29T16:28:07.872Z,7.70
2023-03-29T16:30:36.213Z,8.70
2023-03-29T16:33:08.115Z,8.30
2023-03-29T16:35:37.973Z,8.40
2023-03-29T16:38:06.442Z,7.20
2023-03-29T16:40:34.742Z,7.20
2023-03-29T16:43:03.312Z,7.30
2023-03-29T16:45:31.062Z,6.50
2023-03-29T16:47:58.733Z,5.80
2023-03-29T16:50:26.581Z,7.10
2023-03-29T16:52:54.550Z,7.50
2023-03-29T16:55:22.225Z,10.70
2023-03-29T16:57:51.052Z,8.00
2023-03-29T17:00:20.289Z,6.60
2023-03-29T17:02:51.016Z,7.00
2023-03-29T17:05:19.037Z,8.20
2023-03-29T17:07:46.962Z,6.40
2023-03-29T17:10:14.595Z,6.40
2023-03-29T17:12:42.635Z,6.60
2023-03-29T17:15:10.496Z,4.80
2023-03-29T17:17:38.272Z,6.20
2023-03-29T17:20:08.587Z,6.40
2023-03-29T17:22:36.583Z,5.70
2023-03-29T17:25:07.200Z,6.80
2023-03-29T17:27:35.659Z,7.60
2023-03-29T17:30:05.140Z,6.80
2023-03-29T17:32:32.798Z,9.00
2023-03-29T17:35:00.816Z,12.40
2023-03-29T17:37:28.928Z,7.80
2023-03-29T17:39:56.711Z,8.20
2023-03-29T17:42:24.713Z,8.50
2023-03-29T17:44:52.677Z,9.20
2023-03-29T17:47:20.573Z,7.60
2023-03-29T17:49:48.446Z,6.90
2023-03-29T17:52:16.292Z,4.70
2023-03-29T17:54:44.192Z,5.40
2023-03-29T17:57:12.372Z,7.30
2023-03-29T17:59:40.446Z,6.00
2023-03-29T18:02:14.340Z,7.70
2023-03-29T18:04:42.628Z,4.20
2023-03-29T18:07:10.723Z,5.60
2023-03-29T18:09:39.345Z,6.10
2023-03-29T18:12:08.558Z,6.20
2023-03-29T18:14:36.732Z,7.90
2023-03-29T18:17:05.202Z,6.40
2023-03-29T18:19:33.515Z,6.10
2023-03-29T18:22:01.788Z,6.00
2023-03-29T18:24:30.688Z,5.80
2023-03-29T18:26:59.071Z,6.90
2023-03-29T18:29:27.193Z,7.70
2023-03-29T18:31:55.209Z,7.70
2023-03-29T18:34:23.005Z,7.50
2023-03-29T18:36:50.673Z,8.00
2023-03-29T18:39:18.816Z,5.00
2023-03-29T18:41:46.665Z,5.80
2023-03-29T18:44:17.774Z,8.40
2023-03-29T18:46:45.533Z,9.50
2023-03-29T18:49:13.449Z,9.30
2023-03-29T18:51:42.186Z,8.10
2023-03-29T18:54:09.964Z,11.90
2023-03-29T18:56:37.805Z,13.70
2023-03-29T18:59:06.390Z,11.20
2023-03-29T19:01:34.746Z,12.20
2023-03-29T19:04:02.648Z,9.20
2023-03-29T19:06:30.491Z,9.90
2023-03-29T19:09:02.353Z,9.60
2023-03-29T19:11:30.586Z,9.80
2023-03-29T19:13:58.195Z,8.30
2023-03-29T19:16:27.565Z,9.10
2023-03-29T19:18:55.417Z,10.50
2023-03-29T19:21:23.009Z,9.30
2023-03-29T19:23:53.175Z,9.80
2023-03-29T19:26:21.732Z,8.70
2023-03-29T19:28:49.438Z,9.20
2023-03-29T19:31:17.123Z,9.50
2023-03-29T19:33:45.977Z,9.30
2023-03-29T19:36:13.668Z,8.10
2023-03-29T19:38:41.910Z,9.60
2023-03-29T19:41:09.498Z,12.60
2023-03-29T19:43:37.093Z,16.30
2023-03-29T19:46:07.342Z,16.10
2023-03-29T19:48:34.981Z,28.10
2023-03-29T19:51:03.382Z,10.00
2023-03-29T19:53:31.840Z,15.40
2023-03-29T19:55:59.705Z,22.40
2023-03-29T19:58:27.659Z,18.90
2023-03-29T20:00:58.246Z,23.10
2023-03-29T20:03:28.269Z,40.90
2023-03-29T20:05:56.612Z,26.20
2023-03-29T20:08:24.832Z,22.30
2023-03-29T20:11:04.958Z,19.70
2023-03-29T20:13:38.582Z,14.70
2023-03-29T20:16:14.461Z,21.50
2023-03-29T20:18:44.832Z,18.10
2023-03-29T20:21:16.789Z,12.60
2023-03-29T20:23:44.889Z,11.40
2023-03-29T20:26:12.517Z,15.00
2023-03-29T20:28:40.266Z,13.10
2023-03-29T20:31:10.535Z,13.60
2023-03-29T20:33:39.116Z,13.00
2023-03-29T20:36:08.500Z,14.50
2023-03-29T20:38:36.330Z,15.80
2023-03-29T20:41:05.136Z,13.80
2023-03-29T20:43:37.778Z,14.00
2023-03-29T20:46:14.444Z,13.80
2023-03-29T20:48:54.512Z,11.30
2023-03-29T20:51:28.083Z,16.30
2023-03-29T20:54:05.116Z,8.00
2023-03-29T20:56:39.017Z,12.70
2023-03-29T20:59:07.195Z,9.10
2023-03-29T21:01:35.134Z,12.20
2023-03-29T21:04:03.059Z,11.60
2023-03-29T21:06:31.652Z,11.30
2023-03-29T21:08:59.236Z,12.70
2023-03-29T21:11:27.819Z,12.00
2023-03-29T21:13:55.443Z,11.30
2023-03-29T21:16:25.377Z,12.60
2023-03-29T21:18:53.289Z,14.40
2023-03-29T21:21:22.725Z,12.10
2023-03-29T21:23:50.596Z,13.10
2023-03-29T21:26:18.390Z,9.70
2023-03-29T21:28:48.555Z,8.80
2023-03-29T21:31:16.449Z,11.90
2023-03-29T21:33:44.179Z,9.00
2023-03-29T21:36:12.405Z,9.40
2023-03-29T21:38:40.485Z,10.30
2023-03-29T21:41:12.091Z,12.00
2023-03-29T21:43:40.073Z,10.30
2023-03-29T21:46:08.005Z,11.60
2023-03-29T21:48:36.359Z,8.30
2023-03-29T21:51:04.583Z,8.10
2023-03-29T21:53:32.408Z,6.40
2023-03-29T21:56:00.373Z,6.10
2023-03-29T21:58:28.273Z,7.90
2023-03-29T22:00:56.718Z,9.10
2023-03-29T22:03:24.395Z,9.60
2023-03-29T22:05:59.545Z,9.80
2023-03-29T22:08:27.184Z,9.90
2023-03-29T22:10:58.027Z,6.90
2023-03-29T22:13:27.508Z,8.80
2023-03-29T22:15:59.419Z,8.70
2023-03-29T22:18:28.049Z,8.90
2023-03-29T22:20:56.661Z,6.20
2023-03-29T22:23:24.939Z,6.20
2023-03-29T22:25:52.674Z,5.70
2023-03-29T22:28:20.521Z,6.90
2023-03-29T22:30:48.086Z,5.10
2023-03-29T22:33:15.958Z,4.60
2023-03-29T22:35:43.567Z,4.50
2023-03-29T22:38:11.194Z,5.90
2023-03-29T22:40:40.770Z,5.70
2023-03-29T22:43:08.342Z,5.90
2023-03-29T22:45:36.343Z,5.00
2023-03-29T22:48:04.129Z,6.00
2023-03-29T22:50:31.701Z,5.80
2023-03-29T22:52:59.291Z,4.90
2023-03-29T22:55:27.065Z,6.60
2023-03-29T22:57:54.639Z,8.30
2023-03-29T23:00:22.466Z,6.40
2023-03-29T23:02:50.027Z,6.10
2023-03-29T23:05:17.633Z,4.80
2023-03-29T23:07:45.467Z,5.50
2023-03-29T23:10:13.046Z,3.50
2023-03-29T23:12:42.947Z,5.60
2023-03-29T23:15:11.513Z,4.50
2023-03-29T23:17:39.161Z,5.10
2023-03-29T23:20:08.794Z,5.00
2023-03-29T23:22:36.655Z,7.50
2023-03-29T23:25:04.434Z,6.50
2023-03-29T23:27:32.850Z,6.60
2023-03-29T23:30:01.606Z,4.00
2023-03-29T23:32:29.273Z,4.90
2023-03-29T23:34:56.964Z,4.80
2023-03-29T23:37:24.974Z,4.30
2023-03-29T23:39:52.741Z,4.10
2023-03-29T23:42:21.143Z,3.00
2023-03-29T23:44:48.840Z,4.20
2023-03-29T23:47:16.669Z,3.00
2023-03-29T23:49:45.405Z,4.10
2023-03-29T23:52:13.236Z,4.60
2023-03-29T23:54:40.845Z,4.00
2023-03-29T23:57:08.420Z,4.10
2023-03-29T23:59:37.916Z,3.00
